Terminal Aerodrome Forecast
Issued by NWS Medford, OR

Home | Current Version | Previous Version | Text Only | Print | Product List | Glossary On
Versions: 1 2 3 4 5 6 7 8 9 10 11 12 13
266
FTUS46 KMFR 282340
TAFMFR
TAF
KMFR 282340Z 2900/2924 34011KT P6SM SCT070
     FM290400 02004KT P6SM SKC
     FM291200 33004KT P6SM BKN150
     FM292000 33012G18KT P6SM VCSH SCT050 OVC070=

USA.gov is the U.S. government's official web portal to all federal, state and local government web resources and services.